Terminal Aerodrome Forecast
Issued by NWS

Home | Current Version | Previous Version | Text Only | Print | Product List | Glossary On
Versions: 1 2 3 4 5 6 7 8 9 10 11 12
520
FTUS42 TJSJ 210520
TAFJPS
TAF
TJPS 210520Z 2106/2206 13010G18KT P6SM FEW030 SCT060
     FM211500 13012KT P6SM FEW030 SCT060
     FM212300 05005KT P6SM FEW060
      AMD NOT SKED TIL 211200=

USA.gov is the U.S. government's official web portal to all federal, state and local government web resources and services.